createdAt,value
2022-08-08T00:01:22.136Z,19.32
2022-08-08T00:04:19.382Z,19.12
2022-08-08T00:06:58.609Z,19.02
2022-08-08T00:09:44.655Z,18.90
2022-08-08T00:12:23.720Z,18.78
2022-08-08T00:15:03.212Z,18.78
2022-08-08T00:18:01.643Z,18.75
2022-08-08T00:20:37.188Z,18.77
2022-08-08T00:23:08.523Z,18.72
2022-08-08T00:25:46.390Z,18.79
2022-08-08T00:28:34.995Z,18.78
2022-08-08T00:32:28.491Z,18.63
2022-08-08T00:34:36.888Z,18.35
2022-08-08T00:37:45.294Z,18.02
2022-08-08T00:41:08.977Z,17.79
2022-08-08T00:43:46.048Z,17.86
2022-08-08T00:47:14.132Z,17.77
2022-08-08T00:50:53.421Z,17.50
2022-08-08T00:53:57.301Z,17.49
2022-08-08T00:57:19.659Z,17.34
2022-08-08T01:00:14.374Z,17.35
2022-08-08T01:04:02.188Z,17.13
2022-08-08T01:07:08.686Z,16.96
2022-08-08T01:10:44.394Z,16.95
2022-08-08T01:13:58.381Z,16.87
2022-08-08T01:16:59.156Z,16.64
2022-08-08T01:20:03.929Z,16.31
2022-08-08T01:23:06.953Z,16.13
2022-08-08T01:26:28.461Z,15.97
2022-08-08T01:29:59.864Z,15.85
2022-08-08T01:33:27.880Z,16.01
2022-08-08T01:36:41.935Z,16.08
2022-08-08T01:39:28.452Z,16.30
2022-08-08T01:42:15.027Z,16.31
2022-08-08T01:45:03.386Z,16.11
2022-08-08T01:48:16.917Z,15.91
2022-08-08T01:50:53.284Z,15.72
2022-08-08T01:55:16.306Z,15.59
2022-08-08T01:56:52.714Z,15.58
2022-08-08T02:00:01.091Z,15.67
2022-08-08T02:02:57.136Z,15.76
2022-08-08T02:05:56.551Z,15.82
2022-08-08T02:08:45.578Z,15.61
2022-08-08T02:11:53.423Z,15.40
2022-08-08T02:14:29.594Z,15.21
2022-08-08T02:17:04.271Z,15.11
2022-08-08T02:20:07.326Z,15.03
2022-08-08T02:22:52.607Z,15.18
2022-08-08T02:25:43.714Z,15.18
2022-08-08T02:28:34.735Z,15.05
2022-08-08T02:31:43.527Z,14.88
2022-08-08T02:34:09.821Z,14.69
2022-08-08T02:36:58.504Z,14.55
2022-08-08T02:39:58.420Z,14.40
2022-08-08T02:44:34.731Z,14.29
2022-08-08T02:46:00.726Z,14.18
2022-08-08T02:48:55.222Z,14.08
2022-08-08T02:51:56.476Z,13.98
2022-08-08T02:54:57.347Z,13.91
2022-08-08T02:58:02.787Z,13.88
2022-08-08T03:01:01.762Z,13.76
2022-08-08T03:05:04.493Z,13.66
2022-08-08T03:07:41.421Z,13.89
2022-08-08T03:10:44.388Z,13.91
2022-08-08T03:16:00.661Z,13.91
2022-08-08T03:16:43.573Z,14.01
2022-08-08T03:19:50.502Z,13.97
2022-08-08T03:22:38.302Z,14.08
2022-08-08T03:25:17.786Z,13.95
2022-08-08T03:27:56.685Z,13.88
2022-08-08T03:30:27.166Z,13.72
2022-08-08T03:33:56.153Z,13.61
2022-08-08T03:36:04.427Z,13.54
2022-08-08T03:38:57.739Z,13.49
2022-08-08T03:42:12.232Z,13.47
2022-08-08T03:44:25.682Z,13.43
2022-08-08T03:46:55.275Z,13.49
2022-08-08T03:49:58.240Z,13.46
2022-08-08T03:52:17.014Z,13.48
2022-08-08T03:55:02.078Z,13.68
2022-08-08T03:58:30.601Z,13.74
2022-08-08T04:00:30.483Z,13.70
2022-08-08T04:03:11.683Z,13.57
2022-08-08T04:05:49.663Z,13.51
2022-08-08T04:08:33.346Z,13.48
2022-08-08T04:11:11.486Z,13.50
2022-08-08T04:14:03.875Z,13.50
2022-08-08T04:16:40.929Z,13.51
2022-08-08T04:19:25.100Z,13.53
2022-08-08T04:22:00.239Z,13.60
2022-08-08T04:24:36.610Z,13.51
2022-08-08T04:27:19.343Z,13.45
2022-08-08T04:30:00.745Z,13.42
2022-08-08T04:32:37.358Z,13.44
2022-08-08T04:35:13.219Z,13.45
2022-08-08T04:37:43.722Z,13.50
2022-08-08T04:40:18.842Z,13.55
2022-08-08T04:42:57.349Z,13.55
2022-08-08T04:45:41.392Z,13.60
2022-08-08T04:48:11.263Z,13.65
2022-08-08T04:50:46.006Z,13.70
2022-08-08T04:54:27.536Z,13.75
2022-08-08T04:56:09.123Z,13.76
2022-08-08T04:58:38.134Z,13.86
2022-08-08T05:01:10.906Z,14.09
2022-08-08T05:04:11.360Z,14.28
2022-08-08T05:06:36.499Z,14.33
2022-08-08T05:09:08.571Z,14.42
2022-08-08T05:11:40.792Z,14.72
2022-08-08T05:14:14.844Z,14.92
2022-08-08T05:17:00.659Z,15.19
2022-08-08T05:20:10.530Z,15.36
2022-08-08T05:22:23.681Z,15.54
2022-08-08T05:24:56.247Z,15.65
2022-08-08T05:27:25.655Z,15.72
2022-08-08T05:29:54.939Z,15.83
2022-08-08T05:32:36.585Z,15.94
2022-08-08T05:35:07.228Z,16.04
2022-08-08T05:37:53.694Z,16.09
2022-08-08T05:40:29.692Z,16.17
2022-08-08T05:43:40.204Z,16.26
2022-08-08T05:46:03.256Z,16.38
2022-08-08T05:48:36.063Z,16.50
2022-08-08T05:51:13.212Z,16.58
2022-08-08T05:54:24.452Z,16.71
2022-08-08T05:56:42.439Z,16.81
2022-08-08T05:59:58.993Z,16.94
2022-08-08T06:02:33.832Z,17.06
2022-08-08T06:05:33.037Z,17.16
2022-08-08T06:08:02.522Z,17.33
2022-08-08T06:10:34.745Z,17.47
2022-08-08T06:13:08.172Z,17.58
2022-08-08T06:15:51.181Z,17.78
2022-08-08T06:18:29.949Z,17.99
2022-08-08T06:21:03.764Z,18.16
2022-08-08T06:23:52.646Z,18.37
2022-08-08T06:26:44.839Z,18.68
2022-08-08T06:29:49.279Z,18.91
2022-08-08T06:32:17.217Z,19.39
2022-08-08T06:35:11.620Z,19.59
2022-08-08T06:37:51.059Z,19.89
2022-08-08T06:40:31.972Z,20.21
2022-08-08T06:43:06.062Z,20.30
2022-08-08T06:45:44.954Z,20.41
2022-08-08T06:48:17.700Z,20.49
2022-08-08T06:50:46.406Z,20.75
2022-08-08T06:53:20.520Z,21.20
2022-08-08T06:56:02.543Z,21.72
2022-08-08T06:58:34.954Z,22.16
2022-08-08T07:01:24.474Z,22.24
2022-08-08T07:04:40.370Z,22.64
2022-08-08T07:06:56.775Z,22.71
2022-08-08T07:09:45.130Z,23.00
2022-08-08T07:12:24.390Z,23.16
2022-08-08T07:15:05.595Z,23.78
2022-08-08T07:17:40.305Z,24.15
2022-08-08T07:20:30.574Z,24.19
2022-08-08T07:23:04.696Z,24.10
2022-08-08T07:25:54.154Z,24.06
2022-08-08T07:28:31.616Z,24.61
2022-08-08T07:31:06.240Z,24.87
2022-08-08T07:33:38.186Z,25.13
2022-08-08T07:36:23.880Z,25.27
2022-08-08T07:38:53.490Z,25.42
2022-08-08T07:41:26.508Z,25.90
2022-08-08T07:44:01.742Z,25.70
2022-08-08T07:46:33.349Z,25.65
2022-08-08T07:49:13.408Z,26.18
2022-08-08T07:51:53.293Z,26.60
2022-08-08T07:54:32.939Z,27.11
2022-08-08T07:57:17.460Z,27.05
2022-08-08T07:59:59.416Z,26.95
2022-08-08T08:02:39.513Z,27.25
2022-08-08T08:05:19.651Z,27.35
2022-08-08T08:07:53.162Z,27.44
2022-08-08T08:10:30.202Z,27.47
2022-08-08T08:13:25.779Z,28.43
2022-08-08T08:16:19.021Z,28.17
2022-08-08T08:18:56.136Z,28.71
2022-08-08T08:21:44.448Z,28.85
2022-08-08T08:24:32.115Z,28.32
2022-08-08T08:27:02.583Z,28.36
2022-08-08T08:29:32.751Z,28.41
2022-08-08T08:32:05.647Z,28.40
2022-08-08T08:34:36.774Z,28.97
2022-08-08T08:37:15.563Z,28.79
2022-08-08T08:40:02.025Z,28.86
2022-08-08T08:42:36.685Z,29.14
2022-08-08T08:45:22.854Z,29.15
2022-08-08T08:47:58.364Z,29.01
2022-08-08T08:50:34.963Z,28.70
2022-08-08T08:53:27.374Z,28.44
2022-08-08T08:56:06.663Z,28.41
2022-08-08T08:58:43.375Z,28.57
2022-08-08T09:01:24.717Z,29.32
2022-08-08T09:04:00.620Z,29.91
2022-08-08T09:06:36.483Z,30.06
2022-08-08T09:09:26.487Z,29.81
2022-08-08T09:12:10.362Z,29.38
2022-08-08T09:14:45.073Z,29.74
2022-08-08T09:17:19.531Z,30.60
2022-08-08T09:21:59.697Z,30.56
2022-08-08T09:22:42.078Z,30.99
2022-08-08T09:25:11.368Z,31.55
2022-08-08T09:27:57.691Z,31.21
2022-08-08T09:30:29.664Z,31.76
2022-08-08T09:33:12.925Z,31.78
2022-08-08T09:35:50.923Z,30.83
2022-08-08T09:38:52.773Z,31.53
2022-08-08T09:42:14.156Z,31.22
2022-08-08T09:44:34.264Z,31.35
2022-08-08T09:47:26.762Z,31.21
2022-08-08T09:50:03.499Z,31.82
2022-08-08T09:52:56.726Z,32.12
2022-08-08T09:55:51.673Z,31.93
2022-08-08T09:58:26.003Z,31.47
2022-08-08T10:01:14.218Z,31.47
2022-08-08T10:03:56.059Z,32.25
2022-08-08T10:06:29.741Z,32.13
2022-08-08T10:09:00.775Z,31.77
2022-08-08T10:12:26.147Z,31.68
2022-08-08T10:14:28.263Z,31.68
2022-08-08T10:17:56.021Z,32.72
2022-08-08T10:20:00.134Z,32.80
2022-08-08T10:22:32.291Z,33.27
2022-08-08T10:25:05.531Z,33.30
2022-08-08T10:27:42.935Z,32.54
2022-08-08T10:30:16.616Z,32.13
2022-08-08T10:33:02.068Z,32.82
2022-08-08T10:36:08.219Z,32.96
2022-08-08T10:38:22.288Z,33.02
2022-08-08T10:40:53.695Z,33.25
2022-08-08T10:43:22.880Z,33.08
2022-08-08T10:45:55.844Z,32.97
2022-08-08T10:48:38.891Z,33.05
2022-08-08T10:51:24.369Z,33.50
2022-08-08T10:53:59.146Z,33.18
2022-08-08T10:56:34.795Z,32.79
2022-08-08T10:59:09.244Z,32.78
2022-08-08T11:01:39.746Z,32.64
2022-08-08T11:04:10.594Z,32.44
2022-08-08T11:06:41.473Z,32.20
2022-08-08T11:09:21.693Z,32.98
2022-08-08T11:12:05.410Z,33.01
2022-08-08T11:14:53.153Z,33.56
2022-08-08T11:18:00.271Z,33.26
2022-08-08T11:20:17.723Z,32.95
2022-08-08T11:22:50.973Z,33.14
2022-08-08T11:25:52.077Z,33.09
2022-08-08T11:28:18.661Z,33.49
2022-08-08T11:30:50.034Z,33.38
2022-08-08T11:33:51.311Z,33.18
2022-08-08T11:36:14.884Z,33.90
2022-08-08T11:38:54.660Z,33.80
2022-08-08T11:41:27.957Z,34.29
2022-08-08T11:44:01.167Z,33.76
2022-08-08T11:46:30.540Z,33.90
2022-08-08T11:49:04.255Z,34.94
2022-08-08T11:51:40.321Z,35.06
2022-08-08T11:54:32.385Z,34.68
2022-08-08T11:57:27.200Z,34.61
2022-08-08T12:00:02.681Z,35.34
2022-08-08T12:02:48.566Z,34.96
2022-08-08T12:05:22.538Z,34.47
2022-08-08T12:07:52.418Z,34.44
2022-08-08T12:10:22.438Z,34.74
2022-08-08T12:13:01.227Z,34.81
2022-08-08T12:15:41.718Z,34.76
2022-08-08T12:18:21.526Z,34.63
2022-08-08T12:20:50.869Z,34.26
2022-08-08T12:23:40.340Z,34.38
2022-08-08T12:26:17.329Z,33.86
2022-08-08T12:28:58.802Z,33.88
2022-08-08T12:31:39.134Z,33.77
2022-08-08T12:34:36.266Z,33.55
2022-08-08T12:37:08.138Z,34.09
2022-08-08T12:39:59.944Z,33.95
2022-08-08T12:42:27.377Z,34.24
2022-08-08T12:45:19.944Z,34.07
2022-08-08T12:48:09.747Z,33.55
2022-08-08T12:50:49.047Z,33.49
2022-08-08T12:53:21.783Z,33.75
2022-08-08T12:56:06.561Z,33.67
2022-08-08T12:58:47.616Z,33.43
2022-08-08T13:01:17.380Z,33.94
2022-08-08T13:03:57.978Z,33.60
2022-08-08T13:06:26.984Z,33.09
2022-08-08T13:08:56.842Z,32.51
2022-08-08T13:11:28.628Z,32.77
2022-08-08T13:14:15.830Z,33.49
2022-08-08T13:16:49.180Z,33.23
2022-08-08T13:19:20.539Z,32.94
2022-08-08T13:21:58.078Z,32.96
2022-08-08T13:24:40.736Z,33.72
2022-08-08T13:27:15.264Z,33.56
2022-08-08T13:29:51.572Z,33.52
2022-08-08T13:32:25.307Z,33.73
2022-08-08T13:34:55.544Z,34.22
2022-08-08T13:37:28.319Z,33.89
2022-08-08T13:40:17.897Z,34.12
2022-08-08T13:42:55.673Z,35.23
2022-08-08T13:45:24.905Z,35.22
2022-08-08T13:48:03.076Z,35.08
2022-08-08T13:50:49.215Z,35.34
2022-08-08T13:53:27.950Z,35.08
2022-08-08T13:56:01.086Z,34.82
2022-08-08T13:58:29.639Z,34.64
2022-08-08T14:00:57.982Z,35.05
2022-08-08T14:03:52.838Z,34.28
2022-08-08T14:06:32.083Z,34.86
2022-08-08T14:09:24.307Z,35.39
2022-08-08T14:11:50.806Z,35.47
2022-08-08T14:14:21.212Z,35.20
2022-08-08T14:16:55.296Z,34.46
2022-08-08T14:19:57.106Z,34.55
2022-08-08T14:22:25.286Z,34.55
2022-08-08T14:24:58.887Z,35.00
2022-08-08T14:27:30.490Z,34.92
2022-08-08T14:30:08.258Z,34.31
2022-08-08T14:32:53.282Z,34.57
2022-08-08T14:35:28.356Z,34.96
2022-08-08T14:38:34.722Z,34.85
2022-08-08T14:40:59.532Z,34.98
2022-08-08T14:44:01.701Z,34.08
2022-08-08T14:46:18.773Z,34.52
2022-08-08T14:49:02.467Z,34.70
2022-08-08T14:51:51.516Z,34.15
2022-08-08T14:54:28.392Z,34.48
2022-08-08T14:56:58.183Z,34.58
2022-08-08T14:59:43.949Z,34.37
2022-08-08T15:02:15.586Z,34.05
2022-08-08T15:04:45.537Z,33.90
2022-08-08T15:07:22.704Z,33.28
2022-08-08T15:09:53.508Z,32.97
2022-08-08T15:12:27.683Z,32.93
2022-08-08T15:14:56.455Z,33.28
2022-08-08T15:17:25.094Z,33.15
2022-08-08T15:19:54.720Z,32.85
2022-08-08T15:22:25.440Z,32.62
2022-08-08T15:24:54.523Z,32.47
2022-08-08T15:28:04.688Z,32.43
2022-08-08T15:30:14.538Z,32.07
2022-08-08T15:32:43.454Z,32.05
2022-08-08T15:35:13.034Z,32.11
2022-08-08T15:37:46.056Z,31.93
2022-08-08T15:40:15.308Z,31.49
2022-08-08T15:42:49.595Z,31.70
2022-08-08T15:45:17.941Z,31.76
2022-08-08T15:48:15.304Z,31.96
2022-08-08T15:50:56.765Z,31.70
2022-08-08T15:53:40.244Z,31.69
2022-08-08T15:56:16.635Z,31.52
2022-08-08T15:58:49.033Z,31.46
2022-08-08T16:01:18.097Z,31.38
2022-08-08T16:03:48.299Z,31.16
2022-08-08T16:06:28.273Z,31.09
2022-08-08T16:08:58.568Z,30.82
2022-08-08T16:13:28.732Z,30.94
2022-08-08T16:14:37.299Z,31.05
2022-08-08T16:17:06.443Z,30.91
2022-08-08T16:19:59.605Z,30.97
2022-08-08T16:22:41.409Z,30.74
2022-08-08T16:25:11.861Z,30.30
2022-08-08T16:27:43.573Z,30.26
2022-08-08T16:30:32.483Z,29.94
2022-08-08T16:33:05.690Z,30.24
2022-08-08T16:35:34.048Z,30.27
2022-08-08T16:38:02.117Z,30.17
2022-08-08T16:40:32.928Z,30.16
2022-08-08T16:43:00.960Z,30.15
2022-08-08T16:46:36.714Z,30.06
2022-08-08T16:48:17.081Z,29.76
2022-08-08T16:50:46.459Z,29.48
2022-08-08T16:55:02.812Z,29.28
2022-08-08T16:56:05.892Z,29.32
2022-08-08T16:58:42.334Z,29.28
2022-08-08T17:01:12.886Z,29.42
2022-08-08T17:04:00.182Z,29.44
2022-08-08T17:06:43.997Z,29.22
2022-08-08T17:09:15.360Z,29.11
2022-08-08T17:11:48.570Z,28.95
2022-08-08T17:14:19.662Z,28.93
2022-08-08T17:16:58.542Z,29.00
2022-08-08T17:19:29.065Z,29.01
2022-08-08T17:22:00.972Z,28.97
2022-08-08T17:24:31.024Z,28.86
2022-08-08T17:27:02.681Z,28.76
2022-08-08T17:29:36.536Z,28.73
2022-08-08T17:32:11.833Z,28.79
2022-08-08T17:35:52.404Z,28.78
2022-08-08T17:37:28.044Z,28.88
2022-08-08T17:40:05.608Z,28.65
2022-08-08T17:42:47.347Z,28.64
2022-08-08T17:45:22.406Z,28.52
2022-08-08T17:47:53.889Z,28.41
2022-08-08T17:50:22.610Z,28.42
2022-08-08T17:52:50.831Z,28.35
2022-08-08T17:56:03.955Z,28.14
2022-08-08T17:58:08.274Z,27.97
2022-08-08T18:00:39.034Z,27.85
2022-08-08T18:03:13.603Z,27.75
2022-08-08T18:05:48.670Z,27.57
2022-08-08T18:08:37.706Z,27.42
2022-08-08T18:11:15.135Z,27.35
2022-08-08T18:13:47.757Z,27.33
2022-08-08T18:16:22.977Z,27.27
2022-08-08T18:18:56.029Z,27.17
2022-08-08T18:21:35.531Z,27.05
2022-08-08T18:24:18.810Z,27.09
2022-08-08T18:26:53.800Z,26.97
2022-08-08T18:29:29.906Z,27.06
2022-08-08T18:32:03.319Z,26.98
2022-08-08T18:34:33.390Z,26.76
2022-08-08T18:37:02.994Z,26.59
2022-08-08T18:39:34.662Z,26.53
2022-08-08T18:42:13.007Z,26.34
2022-08-08T18:44:55.916Z,26.39
2022-08-08T18:47:26.663Z,26.59
2022-08-08T18:49:58.935Z,26.46
2022-08-08T18:52:29.768Z,26.33
2022-08-08T18:55:09.506Z,26.20
2022-08-08T18:57:44.666Z,26.00
2022-08-08T19:00:19.682Z,25.73
2022-08-08T19:02:57.152Z,25.69
2022-08-08T19:05:38.506Z,25.51
2022-08-08T19:08:24.472Z,25.51
2022-08-08T19:10:56.509Z,25.37
2022-08-08T19:13:25.436Z,25.39
2022-08-08T19:16:18.657Z,25.28
2022-08-08T19:18:53.203Z,25.43
2022-08-08T19:21:47.802Z,25.26
2022-08-08T19:24:39.254Z,25.23
2022-08-08T19:27:06.577Z,25.11
2022-08-08T19:29:42.195Z,25.15
2022-08-08T19:32:13.125Z,25.41
2022-08-08T19:34:51.322Z,25.49
2022-08-08T19:37:43.436Z,25.62
2022-08-08T19:40:16.248Z,25.62
2022-08-08T19:42:45.694Z,25.67
2022-08-08T19:45:14.065Z,25.55
2022-08-08T19:48:03.172Z,25.33
2022-08-08T19:50:33.002Z,25.11
2022-08-08T19:53:01.046Z,24.95
2022-08-08T19:55:34.039Z,24.75
2022-08-08T19:58:02.677Z,24.63
2022-08-08T20:00:34.376Z,24.68
2022-08-08T20:03:14.323Z,24.53
2022-08-08T20:06:14.703Z,24.40
2022-08-08T20:08:47.603Z,24.17
2022-08-08T20:11:16.530Z,24.11
2022-08-08T20:14:11.988Z,24.07
2022-08-08T20:16:36.247Z,23.83
2022-08-08T20:19:08.677Z,23.71
2022-08-08T20:21:38.293Z,23.75
2022-08-08T20:24:07.910Z,23.63
2022-08-08T20:26:38.434Z,23.55
2022-08-08T20:29:10.954Z,23.48
2022-08-08T20:32:02.463Z,23.38
2022-08-08T20:34:31.926Z,23.37
2022-08-08T20:37:02.558Z,23.38
2022-08-08T20:39:39.795Z,23.55
2022-08-08T20:42:20.433Z,23.37
2022-08-08T20:44:56.342Z,23.30
2022-08-08T20:47:25.347Z,23.30
2022-08-08T20:49:57.714Z,23.24
2022-08-08T20:52:27.816Z,23.13
2022-08-08T20:54:56.359Z,22.90
2022-08-08T20:57:25.371Z,22.86
2022-08-08T20:59:57.336Z,22.75
2022-08-08T21:02:27.909Z,22.69
2022-08-08T21:05:01.168Z,22.75
2022-08-08T21:08:04.101Z,22.83
2022-08-08T21:10:20.810Z,22.72
2022-08-08T21:12:54.166Z,22.79
2022-08-08T21:16:06.200Z,22.72
2022-08-08T21:18:12.086Z,22.72
2022-08-08T21:20:42.370Z,22.48
2022-08-08T21:23:13.148Z,22.61
2022-08-08T21:25:48.752Z,22.56
2022-08-08T21:28:33.515Z,22.54
2022-08-08T21:31:05.913Z,22.67
2022-08-08T21:33:50.532Z,22.53
2022-08-08T21:36:21.737Z,22.63
2022-08-08T21:38:57.432Z,22.72
2022-08-08T21:41:38.340Z,22.65
2022-08-08T21:44:14.679Z,22.62
2022-08-08T21:48:01.469Z,22.75
2022-08-08T21:49:34.025Z,22.57
2022-08-08T21:54:36.675Z,22.53
2022-08-08T21:55:03.101Z,22.71
2022-08-08T21:57:42.996Z,22.59
2022-08-08T22:00:14.247Z,22.50
2022-08-08T22:02:44.272Z,22.49
2022-08-08T22:05:14.970Z,22.49
2022-08-08T22:07:48.143Z,22.41
2022-08-08T22:10:32.220Z,22.38
2022-08-08T22:13:18.694Z,22.41
2022-08-08T22:15:58.482Z,22.30
2022-08-08T22:18:30.365Z,22.29
2022-08-08T22:20:59.557Z,22.30
2022-08-08T22:23:38.369Z,22.24
2022-08-08T22:26:26.637Z,22.14
2022-08-08T22:29:13.338Z,22.31
2022-08-08T22:31:58.588Z,22.12
2022-08-08T22:34:30.782Z,22.05
2022-08-08T22:36:59.590Z,22.12
2022-08-08T22:39:46.277Z,22.23
2022-08-08T22:42:26.984Z,22.08
2022-08-08T22:44:56.089Z,21.99
2022-08-08T22:47:34.235Z,22.09
2022-08-08T22:50:09.861Z,22.07
2022-08-08T22:53:22.464Z,22.09
2022-08-08T22:55:58.329Z,22.08
2022-08-08T22:58:29.177Z,22.00
2022-08-08T23:01:00.057Z,21.86
2022-08-08T23:03:34.193Z,21.81
2022-08-08T23:06:17.167Z,21.82
2022-08-08T23:08:55.410Z,21.80
2022-08-08T23:11:31.181Z,21.72
2022-08-08T23:14:17.809Z,21.89
2022-08-08T23:16:54.768Z,21.74
2022-08-08T23:19:26.245Z,21.64
2022-08-08T23:21:54.355Z,21.73
2022-08-08T23:24:23.680Z,21.74
2022-08-08T23:26:56.013Z,21.63
2022-08-08T23:29:27.014Z,21.47
2022-08-08T23:31:57.976Z,21.60
2022-08-08T23:34:26.239Z,21.42
2022-08-08T23:36:58.206Z,21.34
2022-08-08T23:39:32.380Z,21.46
2022-08-08T23:42:11.671Z,21.35
2022-08-08T23:44:39.606Z,21.38
2022-08-08T23:49:00.409Z,21.51
2022-08-08T23:50:01.136Z,21.50
2022-08-08T23:52:32.150Z,21.46
2022-08-08T23:55:14.697Z,21.52
2022-08-08T23:57:52.820Z,21.52
